createdAt,value
2023-03-12T00:00:00.970Z,99603
2023-03-12T00:01:00.626Z,99603
2023-03-12T00:02:00.641Z,99614
2023-03-12T00:03:00.626Z,99614
2023-03-12T00:04:01.480Z,99614
2023-03-12T00:05:00.658Z,99614
2023-03-12T00:06:10.297Z,99614
2023-03-12T00:07:01.064Z,99620
2023-03-12T00:08:00.707Z,99620
2023-03-12T00:09:00.621Z,99620
2023-03-12T00:10:01.027Z,99620
2023-03-12T00:11:04.909Z,99620
2023-03-12T00:12:00.663Z,99609
2023-03-12T00:13:00.893Z,99609
2023-03-12T00:14:00.641Z,99609
2023-03-12T00:15:00.801Z,99609
2023-03-12T00:16:02.604Z,99609
2023-03-12T00:17:00.619Z,99616
2023-03-12T00:18:00.642Z,99616
2023-03-12T00:19:00.663Z,99616
2023-03-12T00:20:00.856Z,99616
2023-03-12T00:21:00.695Z,99616
2023-03-12T00:22:00.627Z,99612
2023-03-12T00:23:00.642Z,99612
2023-03-12T00:24:00.659Z,99612
2023-03-12T00:25:00.916Z,99612
2023-03-12T00:26:01.683Z,99612
2023-03-12T00:27:00.676Z,99613
2023-03-12T00:28:00.632Z,99613
2023-03-12T00:29:00.685Z,99613
2023-03-12T00:30:00.745Z,99613
2023-03-12T00:31:01.404Z,99613
2023-03-12T00:32:00.641Z,99623
2023-03-12T00:33:00.628Z,99623
2023-03-12T00:34:01.262Z,99623
2023-03-12T00:35:00.749Z,99623
2023-03-12T00:36:00.672Z,99623
2023-03-12T00:37:00.633Z,99625
2023-03-12T00:38:00.656Z,99625
2023-03-12T00:39:01.039Z,99625
2023-03-12T00:40:00.645Z,99625
2023-03-12T00:41:00.648Z,99625
2023-03-12T00:42:00.827Z,99625
2023-03-12T00:43:00.657Z,99625
2023-03-12T00:44:00.689Z,99625
2023-03-12T00:45:00.634Z,99625
2023-03-12T00:46:00.634Z,99625
2023-03-12T00:47:00.673Z,99623
2023-03-12T00:48:00.622Z,99623
2023-03-12T00:49:00.651Z,99623
2023-03-12T00:50:00.633Z,99623
2023-03-12T00:51:00.690Z,99623
2023-03-12T00:52:00.669Z,99627
2023-03-12T00:53:00.629Z,99627
2023-03-12T00:54:00.630Z,99627
2023-03-12T00:55:00.638Z,99627
2023-03-12T00:56:00.824Z,99627
2023-03-12T00:57:00.633Z,99634
2023-03-12T00:58:00.613Z,99634
2023-03-12T00:59:00.677Z,99634
2023-03-12T01:00:00.642Z,99634
2023-03-12T01:01:00.702Z,99634
2023-03-12T01:02:00.701Z,99631
2023-03-12T01:03:00.645Z,99631
2023-03-12T01:04:00.660Z,99631
2023-03-12T01:05:00.657Z,99631
2023-03-12T01:06:00.649Z,99631
2023-03-12T01:07:00.672Z,99632
2023-03-12T01:08:00.631Z,99632
2023-03-12T01:09:01.828Z,99632
2023-03-12T01:10:00.868Z,99632
2023-03-12T01:11:00.777Z,99632
2023-03-12T01:12:00.702Z,99626
2023-03-12T01:13:00.683Z,99626
2023-03-12T01:14:01.407Z,99626
2023-03-12T01:15:00.759Z,99626
2023-03-12T01:16:00.651Z,99626
2023-03-12T01:17:00.624Z,99626
2023-03-12T01:18:00.632Z,99626
2023-03-12T01:19:01.654Z,99626
2023-03-12T01:20:00.693Z,99626
2023-03-12T01:21:01.052Z,99626
2023-03-12T01:22:00.635Z,99625
2023-03-12T01:23:00.660Z,99625
2023-03-12T01:24:00.643Z,99625
2023-03-12T01:25:00.635Z,99625
2023-03-12T01:26:00.626Z,99625
2023-03-12T01:27:00.661Z,99616
2023-03-12T01:28:00.637Z,99616
2023-03-12T01:29:00.652Z,99616
2023-03-12T01:30:00.756Z,99616
2023-03-12T01:31:09.001Z,99616
2023-03-12T01:32:00.638Z,99617
2023-03-12T01:33:00.651Z,99617
2023-03-12T01:34:00.634Z,99617
2023-03-12T01:35:00.695Z,99617
2023-03-12T01:36:00.870Z,99617
2023-03-12T01:37:00.974Z,99625
2023-03-12T01:38:00.618Z,99625
2023-03-12T01:39:00.680Z,99625
2023-03-12T01:40:00.832Z,99625
2023-03-12T01:41:00.622Z,99625
2023-03-12T01:42:00.798Z,99624
2023-03-12T01:43:10.538Z,99624
2023-03-12T01:44:01.359Z,99624
2023-03-12T01:45:03.482Z,99624
2023-03-12T01:46:01.730Z,99624
2023-03-12T01:47:00.608Z,99613
2023-03-12T01:48:00.610Z,99613
2023-03-12T01:49:09.557Z,99613
2023-03-12T01:50:01.215Z,99613
2023-03-12T01:51:01.428Z,99613
2023-03-12T01:52:02.507Z,99616
2023-03-12T01:53:00.715Z,99616
2023-03-12T01:54:04.306Z,99616
2023-03-12T01:55:03.477Z,99616
2023-03-12T01:56:00.864Z,99616
2023-03-12T01:57:01.662Z,99608
2023-03-12T01:58:01.218Z,99608
2023-03-12T01:59:02.876Z,99608
2023-03-12T02:00:06.541Z,99608
2023-03-12T02:01:00.674Z,99608
2023-03-12T02:02:01.896Z,99619
2023-03-12T02:03:04.710Z,99619
2023-03-12T02:04:00.939Z,99619
2023-03-12T02:05:10.605Z,99619
2023-03-12T02:06:05.130Z,99619
2023-03-12T02:07:01.640Z,99620
2023-03-12T02:08:00.738Z,99620
2023-03-12T02:09:01.734Z,99620
2023-03-12T02:10:01.116Z,99620
2023-03-12T02:11:00.620Z,99620
2023-03-12T02:12:00.728Z,99616
2023-03-12T02:13:00.927Z,99616
2023-03-12T02:14:01.138Z,99616
2023-03-12T02:15:00.864Z,99616
2023-03-12T02:16:01.050Z,99616
2023-03-12T02:17:00.739Z,99622
2023-03-12T02:18:02.492Z,99622
2023-03-12T02:19:01.242Z,99622
2023-03-12T02:20:10.531Z,99622
2023-03-12T02:21:10.529Z,99622
2023-03-12T02:22:02.016Z,99626
2023-03-12T02:23:10.544Z,99626
2023-03-12T02:24:10.529Z,99626
2023-03-12T02:25:00.608Z,99626
2023-03-12T02:26:01.046Z,99626
2023-03-12T02:27:01.381Z,99614
2023-03-12T02:28:02.914Z,99614
2023-03-12T02:29:00.643Z,99614
2023-03-12T02:30:01.663Z,99614
2023-03-12T02:31:02.167Z,99614
2023-03-12T02:32:00.968Z,99622
2023-03-12T02:33:01.669Z,99622
2023-03-12T02:34:00.720Z,99622
2023-03-12T02:35:00.886Z,99622
2023-03-12T02:36:00.716Z,99622
2023-03-12T02:37:00.645Z,99617
2023-03-12T02:38:01.113Z,99617
2023-03-12T02:39:00.623Z,99617
2023-03-12T02:40:07.642Z,99617
2023-03-12T02:41:02.893Z,99617
2023-03-12T02:42:00.641Z,99608
2023-03-12T02:43:02.163Z,99608
2023-03-12T02:44:06.051Z,99608
2023-03-12T02:45:01.025Z,99608
2023-03-12T02:46:00.704Z,99608
2023-03-12T02:47:00.650Z,99604
2023-03-12T02:48:01.265Z,99604
2023-03-12T02:49:00.873Z,99604
2023-03-12T02:50:00.646Z,99604
2023-03-12T02:51:00.673Z,99604
2023-03-12T02:52:01.136Z,99618
2023-03-12T02:53:00.647Z,99618
2023-03-12T02:54:00.615Z,99618
2023-03-12T02:55:00.952Z,99618
2023-03-12T02:56:00.764Z,99618
2023-03-12T02:57:00.667Z,99626
2023-03-12T02:58:00.656Z,99626
2023-03-12T02:59:03.225Z,99626
2023-03-12T03:00:00.638Z,99626
2023-03-12T03:01:00.731Z,99626
2023-03-12T03:02:00.680Z,99624
2023-03-12T03:03:01.033Z,99624
2023-03-12T03:04:01.959Z,99624
2023-03-12T03:05:00.610Z,99624
2023-03-12T03:06:00.655Z,99624
2023-03-12T03:07:00.729Z,99620
2023-03-12T03:08:00.618Z,99620
2023-03-12T03:09:01.148Z,99620
2023-03-12T03:10:00.665Z,99620
2023-03-12T03:11:00.626Z,99620
2023-03-12T03:12:00.626Z,99616
2023-03-12T03:13:00.708Z,99616
2023-03-12T03:14:00.645Z,99616
2023-03-12T03:15:00.709Z,99616
2023-03-12T03:16:01.127Z,99616
2023-03-12T03:17:00.696Z,99616
2023-03-12T03:18:00.611Z,99616
2023-03-12T03:19:00.832Z,99616
2023-03-12T03:20:00.633Z,99616
2023-03-12T03:21:02.521Z,99616
2023-03-12T03:22:00.627Z,99617
2023-03-12T03:23:00.634Z,99617
2023-03-12T03:24:00.659Z,99617
2023-03-12T03:25:00.648Z,99617
2023-03-12T03:26:00.829Z,99617
2023-03-12T03:27:00.624Z,99627
2023-03-12T03:28:00.684Z,99627
2023-03-12T03:29:00.630Z,99627
2023-03-12T03:30:00.740Z,99627
2023-03-12T03:31:00.814Z,99627
2023-03-12T03:32:00.647Z,99647
2023-03-12T03:33:00.633Z,99647
2023-03-12T03:34:00.618Z,99647
2023-03-12T03:35:00.752Z,99647
2023-03-12T03:36:01.205Z,99647
2023-03-12T03:37:00.622Z,99656
2023-03-12T03:38:00.651Z,99656
2023-03-12T03:39:00.624Z,99656
2023-03-12T03:40:00.803Z,99656
2023-03-12T03:41:00.965Z,99656
2023-03-12T03:42:00.656Z,99662
2023-03-12T03:43:00.619Z,99662
2023-03-12T03:44:00.676Z,99662
2023-03-12T03:45:00.619Z,99662
2023-03-12T03:46:02.010Z,99662
2023-03-12T03:47:00.666Z,99665
2023-03-12T03:48:00.622Z,99665
2023-03-12T03:49:01.135Z,99665
2023-03-12T03:50:00.702Z,99665
2023-03-12T03:51:01.290Z,99665
2023-03-12T03:52:00.622Z,99667
2023-03-12T03:53:00.662Z,99667
2023-03-12T03:54:00.704Z,99667
2023-03-12T03:55:00.638Z,99667
2023-03-12T03:56:04.779Z,99667
2023-03-12T03:57:00.665Z,99687
2023-03-12T03:58:00.677Z,99687
2023-03-12T03:59:00.913Z,99687
2023-03-12T04:00:03.519Z,99687
2023-03-12T04:01:00.844Z,99687
2023-03-12T04:02:00.626Z,99692
2023-03-12T04:03:00.709Z,99692
2023-03-12T04:04:00.650Z,99692
2023-03-12T04:05:00.903Z,99692
2023-03-12T04:06:02.657Z,99692
2023-03-12T04:07:00.612Z,99698
2023-03-12T04:08:00.620Z,99698
2023-03-12T04:09:00.902Z,99698
2023-03-12T04:10:00.738Z,99698
2023-03-12T04:11:10.035Z,99698
2023-03-12T04:12:00.708Z,99703
2023-03-12T04:13:00.635Z,99703
2023-03-12T04:14:00.613Z,99703
2023-03-12T04:15:00.663Z,99703
2023-03-12T04:16:00.694Z,99703
2023-03-12T04:17:00.620Z,99708
2023-03-12T04:18:00.817Z,99708
2023-03-12T04:19:00.618Z,99708
2023-03-12T04:20:00.671Z,99708
2023-03-12T04:21:01.160Z,99708
2023-03-12T04:22:00.800Z,99712
2023-03-12T04:23:00.660Z,99712
2023-03-12T04:24:00.716Z,99712
2023-03-12T04:25:00.863Z,99712
2023-03-12T04:26:00.616Z,99712
2023-03-12T04:27:00.656Z,99715
2023-03-12T04:28:00.638Z,99715
2023-03-12T04:29:00.659Z,99715
2023-03-12T04:30:00.644Z,99715
2023-03-12T04:31:01.925Z,99715
2023-03-12T04:32:00.618Z,99711
2023-03-12T04:33:00.630Z,99711
2023-03-12T04:34:00.655Z,99711
2023-03-12T04:35:00.639Z,99711
2023-03-12T04:36:00.931Z,99711
2023-03-12T04:37:01.030Z,99708
2023-03-12T04:38:00.867Z,99708
2023-03-12T04:39:01.108Z,99708
2023-03-12T04:40:01.021Z,99708
2023-03-12T04:41:01.884Z,99708
2023-03-12T04:42:00.624Z,99730
2023-03-12T04:43:00.620Z,99730
2023-03-12T04:44:00.811Z,99730
2023-03-12T04:45:01.047Z,99730
2023-03-12T04:46:00.999Z,99730
2023-03-12T04:47:00.806Z,99727
2023-03-12T04:48:00.629Z,99727
2023-03-12T04:49:00.644Z,99727
2023-03-12T04:50:00.636Z,99727
2023-03-12T04:51:01.302Z,99727
2023-03-12T04:52:00.668Z,99732
2023-03-12T04:53:00.771Z,99732
2023-03-12T04:54:00.693Z,99732
2023-03-12T04:55:00.923Z,99732
2023-03-12T04:56:00.624Z,99732
2023-03-12T04:57:00.638Z,99746
2023-03-12T04:58:00.728Z,99746
2023-03-12T04:59:00.635Z,99746
2023-03-12T05:00:00.712Z,99746
2023-03-12T05:01:00.701Z,99746
2023-03-12T05:02:00.684Z,99752
2023-03-12T05:03:00.696Z,99752
2023-03-12T05:04:01.115Z,99752
2023-03-12T05:05:00.647Z,99752
2023-03-12T05:06:00.642Z,99752
2023-03-12T05:07:01.032Z,99771
2023-03-12T05:08:01.036Z,99771
2023-03-12T05:09:00.672Z,99771
2023-03-12T05:10:00.830Z,99771
2023-03-12T05:11:00.621Z,99771
2023-03-12T05:12:00.737Z,99785
2023-03-12T05:13:00.669Z,99785
2023-03-12T05:14:00.651Z,99785
2023-03-12T05:15:00.657Z,99785
2023-03-12T05:16:00.715Z,99785
2023-03-12T05:17:00.638Z,99783
2023-03-12T05:18:00.652Z,99783
2023-03-12T05:19:00.654Z,99783
2023-03-12T05:20:00.635Z,99783
2023-03-12T05:21:02.365Z,99783
2023-03-12T05:22:00.673Z,99785
2023-03-12T05:23:00.721Z,99785
2023-03-12T05:24:00.705Z,99785
2023-03-12T05:25:01.008Z,99785
2023-03-12T05:26:00.724Z,99785
2023-03-12T05:27:00.689Z,99800
2023-03-12T05:28:00.666Z,99800
2023-03-12T05:29:01.365Z,99800
2023-03-12T05:30:00.897Z,99800
2023-03-12T05:31:00.647Z,99800
2023-03-12T05:32:01.214Z,99800
2023-03-12T05:33:00.640Z,99800
2023-03-12T05:34:01.750Z,99800
2023-03-12T05:35:00.638Z,99800
2023-03-12T05:36:00.743Z,99800
2023-03-12T05:37:00.646Z,99804
2023-03-12T05:38:00.646Z,99804
2023-03-12T05:39:00.639Z,99804
2023-03-12T05:40:00.687Z,99804
2023-03-12T05:41:00.780Z,99804
2023-03-12T05:42:00.648Z,99791
2023-03-12T05:43:00.677Z,99791
2023-03-12T05:44:00.704Z,99791
2023-03-12T05:45:00.729Z,99791
2023-03-12T05:46:02.798Z,99791
2023-03-12T05:47:00.625Z,99798
2023-03-12T05:48:00.638Z,99798
2023-03-12T05:49:00.635Z,99798
2023-03-12T05:50:00.737Z,99798
2023-03-12T05:51:00.637Z,99798
2023-03-12T05:52:00.646Z,99798
2023-03-12T05:53:00.641Z,99798
2023-03-12T05:54:00.696Z,99798
2023-03-12T05:55:00.679Z,99798
2023-03-12T05:56:04.907Z,99798
2023-03-12T05:57:00.678Z,99788
2023-03-12T05:58:00.683Z,99788
2023-03-12T05:59:00.664Z,99788
2023-03-12T06:00:00.715Z,99788
2023-03-12T06:01:00.889Z,99788
2023-03-12T06:02:00.758Z,99787
2023-03-12T06:03:00.703Z,99787
2023-03-12T06:04:00.990Z,99787
2023-03-12T06:05:00.625Z,99787
2023-03-12T06:06:00.656Z,99787
2023-03-12T06:07:00.708Z,99780
2023-03-12T06:08:01.314Z,99780
2023-03-12T06:09:01.238Z,99780
2023-03-12T06:10:00.630Z,99780
2023-03-12T06:11:00.639Z,99780
2023-03-12T06:12:00.761Z,99782
2023-03-12T06:13:00.614Z,99782
2023-03-12T06:14:00.889Z,99782
2023-03-12T06:15:00.669Z,99782
2023-03-12T06:16:01.865Z,99782
2023-03-12T06:17:01.161Z,99798
2023-03-12T06:18:00.657Z,99798
2023-03-12T06:19:02.473Z,99798
2023-03-12T06:20:00.681Z,99798
2023-03-12T06:21:10.532Z,99798
2023-03-12T06:22:00.630Z,99798
2023-03-12T06:23:00.686Z,99798
2023-03-12T06:24:01.242Z,99798
2023-03-12T06:25:00.696Z,99798
2023-03-12T06:26:00.606Z,99798
2023-03-12T06:27:00.632Z,99789
2023-03-12T06:28:00.620Z,99789
2023-03-12T06:29:00.693Z,99789
2023-03-12T06:30:00.691Z,99789
2023-03-12T06:31:00.652Z,99789
2023-03-12T06:32:00.746Z,99794
2023-03-12T06:33:00.612Z,99794
2023-03-12T06:34:00.642Z,99794
2023-03-12T06:35:00.837Z,99794
2023-03-12T06:36:01.694Z,99794
2023-03-12T06:37:00.622Z,99807
2023-03-12T06:38:00.664Z,99807
2023-03-12T06:39:01.827Z,99807
2023-03-12T06:40:00.773Z,99807
2023-03-12T06:41:02.241Z,99807
2023-03-12T06:42:00.828Z,99810
2023-03-12T06:43:00.631Z,99810
2023-03-12T06:44:01.023Z,99810
2023-03-12T06:45:00.754Z,99810
2023-03-12T06:46:01.546Z,99810
2023-03-12T06:47:00.629Z,99812
2023-03-12T06:48:00.635Z,99812
2023-03-12T06:49:00.618Z,99812
2023-03-12T06:50:00.698Z,99812
2023-03-12T06:51:00.799Z,99812
2023-03-12T06:52:00.743Z,99818
2023-03-12T06:53:00.617Z,99818
2023-03-12T06:54:00.686Z,99818
2023-03-12T06:55:00.639Z,99818
2023-03-12T06:56:01.030Z,99818
2023-03-12T06:57:00.624Z,99814
2023-03-12T06:58:00.623Z,99814
2023-03-12T06:59:00.639Z,99814
2023-03-12T07:00:00.658Z,99814
2023-03-12T07:01:00.646Z,99814
2023-03-12T07:02:00.745Z,99818
2023-03-12T07:03:00.789Z,99818
2023-03-12T07:04:00.633Z,99818
2023-03-12T07:05:00.692Z,99818
2023-03-12T07:06:00.971Z,99818
2023-03-12T07:07:00.633Z,99834
2023-03-12T07:08:00.689Z,99834
2023-03-12T07:09:00.624Z,99834
2023-03-12T07:10:00.641Z,99834
2023-03-12T07:11:01.729Z,99834
2023-03-12T07:12:00.647Z,99837
2023-03-12T07:13:00.686Z,99837
2023-03-12T07:14:00.705Z,99837
2023-03-12T07:15:00.632Z,99837
2023-03-12T07:16:00.893Z,99837
2023-03-12T07:17:00.679Z,99845
2023-03-12T07:18:03.191Z,99845
2023-03-12T07:19:00.704Z,99845
2023-03-12T07:20:00.906Z,99845
2023-03-12T07:21:00.657Z,99845
2023-03-12T07:22:00.788Z,99840
2023-03-12T07:23:00.635Z,99840
2023-03-12T07:24:00.643Z,99840
2023-03-12T07:25:00.651Z,99840
2023-03-12T07:26:02.445Z,99840
2023-03-12T07:27:00.637Z,99825
2023-03-12T07:28:00.672Z,99825
2023-03-12T07:29:01.554Z,99825
2023-03-12T07:30:00.715Z,99825
2023-03-12T07:31:01.859Z,99825
2023-03-12T07:32:00.635Z,99839
2023-03-12T07:33:01.553Z,99839
2023-03-12T07:34:00.740Z,99839
2023-03-12T07:35:00.629Z,99839
2023-03-12T07:36:00.999Z,99839
2023-03-12T07:37:00.686Z,99835
2023-03-12T07:38:01.160Z,99835
2023-03-12T07:39:00.644Z,99835
2023-03-12T07:40:00.792Z,99835
2023-03-12T07:41:00.715Z,99835
2023-03-12T07:42:00.748Z,99850
2023-03-12T07:43:01.187Z,99850
2023-03-12T07:44:00.769Z,99850
2023-03-12T07:45:00.815Z,99850
2023-03-12T07:46:00.702Z,99850
2023-03-12T07:47:12.843Z,99855
2023-03-12T07:48:00.663Z,99855
2023-03-12T07:49:00.633Z,99855
2023-03-12T07:50:00.851Z,99855
2023-03-12T07:51:00.752Z,99855
2023-03-12T07:52:00.715Z,99830
2023-03-12T07:53:00.664Z,99830
2023-03-12T07:54:00.623Z,99830
2023-03-12T07:55:00.739Z,99830
2023-03-12T07:56:00.729Z,99830
2023-03-12T07:57:01.017Z,99839
2023-03-12T07:58:00.715Z,99839
2023-03-12T07:59:00.925Z,99839
2023-03-12T08:00:00.827Z,99839
2023-03-12T08:01:01.106Z,99839
2023-03-12T08:02:00.875Z,99855
2023-03-12T08:03:00.899Z,99855
2023-03-12T08:04:01.352Z,99855
2023-03-12T08:05:00.857Z,99855
2023-03-12T08:06:01.773Z,99855
2023-03-12T08:07:01.398Z,99871
2023-03-12T08:08:00.754Z,99871
2023-03-12T08:09:00.682Z,99871
2023-03-12T08:10:02.102Z,99871
2023-03-12T08:11:02.652Z,99871
2023-03-12T08:12:01.136Z,99869
2023-03-12T08:13:00.729Z,99869
2023-03-12T08:14:00.609Z,99869
2023-03-12T08:15:00.650Z,99869
2023-03-12T08:16:00.715Z,99869
2023-03-12T08:17:00.686Z,99857
2023-03-12T08:18:00.606Z,99857
2023-03-12T08:19:00.709Z,99857
2023-03-12T08:20:00.650Z,99857
2023-03-12T08:21:00.668Z,99857
2023-03-12T08:22:00.639Z,99855
2023-03-12T08:23:00.627Z,99855
2023-03-12T08:24:00.610Z,99855
2023-03-12T08:25:00.663Z,99855
2023-03-12T08:26:00.629Z,99855
2023-03-12T08:27:00.844Z,99864
2023-03-12T08:28:00.615Z,99864
2023-03-12T08:29:00.613Z,99864
2023-03-12T08:30:00.757Z,99864
2023-03-12T08:31:00.625Z,99864
2023-03-12T08:32:04.970Z,99869
2023-03-12T08:33:00.744Z,99869
2023-03-12T08:34:00.682Z,99869
2023-03-12T08:35:00.669Z,99869
2023-03-12T08:36:00.791Z,99869
2023-03-12T08:37:01.317Z,99854
2023-03-12T08:38:00.612Z,99854
2023-03-12T08:39:00.644Z,99854
2023-03-12T08:40:00.805Z,99854
2023-03-12T08:41:00.662Z,99854
2023-03-12T08:42:00.731Z,99861
2023-03-12T08:43:00.677Z,99861
2023-03-12T08:44:00.665Z,99861
2023-03-12T08:45:00.622Z,99861
2023-03-12T08:46:01.486Z,99861
2023-03-12T08:47:00.702Z,99861
2023-03-12T08:48:01.396Z,99861
2023-03-12T08:49:00.659Z,99861
2023-03-12T08:50:00.968Z,99861
2023-03-12T08:51:00.934Z,99861
2023-03-12T08:52:00.678Z,99859
2023-03-12T08:53:00.645Z,99859
2023-03-12T08:54:00.626Z,99859
2023-03-12T08:55:00.643Z,99859
2023-03-12T08:56:01.138Z,99859
2023-03-12T08:57:00.621Z,99859
2023-03-12T08:58:00.667Z,99859
2023-03-12T08:59:00.628Z,99859
2023-03-12T09:00:00.704Z,99859
2023-03-12T09:01:00.628Z,99859
2023-03-12T09:02:00.625Z,99866
2023-03-12T09:03:00.700Z,99866
2023-03-12T09:04:01.910Z,99866
2023-03-12T09:05:00.630Z,99866
2023-03-12T09:06:01.128Z,99866
2023-03-12T09:07:00.681Z,99862
2023-03-12T09:08:00.672Z,99862
2023-03-12T09:09:00.797Z,99862
2023-03-12T09:10:00.642Z,99862
2023-03-12T09:11:00.625Z,99862
2023-03-12T09:12:00.629Z,99872
2023-03-12T09:13:01.175Z,99872
2023-03-12T09:15:03.907Z,99872
2023-03-12T09:16:01.489Z,99872
2023-03-12T09:17:00.777Z,99869
2023-03-12T09:18:00.652Z,99869
2023-03-12T09:19:00.660Z,99869
2023-03-12T09:20:00.646Z,99869
2023-03-12T09:21:00.762Z,99869
2023-03-12T09:22:00.678Z,99867
2023-03-12T09:23:00.619Z,99867
2023-03-12T09:24:00.632Z,99867
2023-03-12T09:25:00.636Z,99867
2023-03-12T09:26:00.625Z,99867
2023-03-12T09:27:00.952Z,99869
2023-03-12T09:28:00.616Z,99869
2023-03-12T09:29:00.635Z,99869
2023-03-12T09:30:01.406Z,99869
2023-03-12T09:31:01.217Z,99869
2023-03-12T09:32:00.641Z,99872
2023-03-12T09:33:00.772Z,99872
2023-03-12T09:34:00.895Z,99872
2023-03-12T09:35:00.693Z,99872
2023-03-12T09:36:00.876Z,99872
2023-03-12T09:37:00.625Z,99871
2023-03-12T09:38:01.082Z,99871
2023-03-12T09:39:00.655Z,99871
2023-03-12T09:40:00.902Z,99871
2023-03-12T09:41:02.284Z,99871
2023-03-12T09:42:02.362Z,99868
2023-03-12T09:43:00.604Z,99868
2023-03-12T09:44:03.868Z,99868
2023-03-12T09:45:03.028Z,99868
2023-03-12T09:46:01.370Z,99868
2023-03-12T09:47:06.617Z,99866
2023-03-12T09:48:02.435Z,99866
2023-03-12T09:49:02.806Z,99866
2023-03-12T09:50:04.522Z,99866
2023-03-12T09:51:05.105Z,99866
2023-03-12T09:52:02.418Z,99858
2023-03-12T09:53:02.231Z,99858
2023-03-12T09:54:02.843Z,99858
2023-03-12T09:55:08.368Z,99858
2023-03-12T09:56:02.106Z,99858
2023-03-12T09:57:02.627Z,99857
2023-03-12T09:58:00.644Z,99857
2023-03-12T09:59:00.857Z,99857
2023-03-12T10:00:00.698Z,99857
2023-03-12T10:01:10.530Z,99857
2023-03-12T10:02:03.950Z,99856
2023-03-12T10:03:07.648Z,99856
2023-03-12T10:04:01.638Z,99856
2023-03-12T10:05:05.101Z,99856
2023-03-12T10:06:08.474Z,99856
2023-03-12T10:07:04.076Z,99858
2023-03-12T10:08:23.026Z,99858
2023-03-12T10:09:00.642Z,99858
2023-03-12T10:10:00.598Z,99858
2023-03-12T10:11:10.537Z,99858
2023-03-12T10:12:01.625Z,99861
2023-03-12T10:13:01.622Z,99861
2023-03-12T10:14:10.554Z,99861
2023-03-12T10:15:10.554Z,99861
2023-03-12T10:16:07.499Z,99861
2023-03-12T10:17:10.560Z,99851
2023-03-12T10:18:00.710Z,99851
2023-03-12T10:19:07.957Z,99851
2023-03-12T10:20:08.139Z,99851
2023-03-12T10:21:01.624Z,99851
2023-03-12T10:22:06.286Z,99835
2023-03-12T10:23:10.528Z,99835
2023-03-12T10:24:03.898Z,99835
2023-03-12T10:25:07.128Z,99835
2023-03-12T10:26:01.650Z,99835
2023-03-12T10:27:00.619Z,99826
2023-03-12T10:28:10.534Z,99826
2023-03-12T10:29:10.544Z,99826
2023-03-12T10:30:01.882Z,99826
2023-03-12T10:31:03.993Z,99826
2023-03-12T10:32:04.424Z,99818
2023-03-12T10:33:02.923Z,99818
2023-03-12T10:34:01.669Z,99818
2023-03-12T10:35:03.302Z,99818
2023-03-12T10:36:00.692Z,99818
2023-03-12T10:37:04.056Z,99813
2023-03-12T10:38:02.255Z,99813
2023-03-12T10:39:00.654Z,99813
2023-03-12T10:40:00.798Z,99813
2023-03-12T10:41:10.481Z,99813
2023-03-12T10:42:00.664Z,99804
2023-03-12T10:43:01.696Z,99804
2023-03-12T10:44:05.000Z,99804
2023-03-12T10:45:07.981Z,99804
2023-03-12T10:46:09.509Z,99804
2023-03-12T10:47:05.297Z,99811
2023-03-12T10:48:02.951Z,99811
2023-03-12T10:49:10.542Z,99811
2023-03-12T10:50:10.561Z,99811
2023-03-12T10:51:04.786Z,99811
2023-03-12T10:52:05.834Z,99810
2023-03-12T10:53:10.564Z,99810
2023-03-12T10:54:10.546Z,99810
2023-03-12T10:55:09.475Z,99810
2023-03-12T10:56:04.016Z,99810
2023-03-12T10:57:00.943Z,99819
2023-03-12T10:58:00.617Z,99819
2023-03-12T10:59:00.635Z,99819
2023-03-12T11:00:04.444Z,99819
2023-03-12T11:01:01.429Z,99819
2023-03-12T11:02:02.188Z,99814
2023-03-12T11:03:01.624Z,99814
2023-03-12T11:04:10.554Z,99814
2023-03-12T11:05:01.464Z,99814
2023-03-12T11:06:02.241Z,99814
2023-03-12T11:07:05.823Z,99803
2023-03-12T11:08:02.124Z,99803
2023-03-12T11:09:16.290Z,99803
2023-03-12T11:10:11.695Z,99803
2023-03-12T11:11:01.537Z,99803
2023-03-12T11:12:00.630Z,99806
2023-03-12T11:13:03.278Z,99806
2023-03-12T11:14:10.532Z,99806
2023-03-12T11:15:10.578Z,99806
2023-03-12T11:16:02.022Z,99806
2023-03-12T11:17:10.534Z,99803
2023-03-12T11:18:10.549Z,99803
2023-03-12T11:19:01.811Z,99803
2023-03-12T11:20:10.560Z,99803
2023-03-12T11:21:08.122Z,99803
2023-03-12T11:22:04.199Z,99797
2023-03-12T11:23:10.520Z,99797
2023-03-12T11:24:03.190Z,99797
2023-03-12T11:25:02.668Z,99797
2023-03-12T11:26:03.221Z,99797
2023-03-12T11:27:03.924Z,99803
2023-03-12T11:28:01.834Z,99803
2023-03-12T11:29:03.323Z,99803
2023-03-12T11:30:02.044Z,99803
2023-03-12T11:31:01.053Z,99803
2023-03-12T11:32:05.344Z,99791
2023-03-12T11:33:00.656Z,99791
2023-03-12T11:34:05.141Z,99791
2023-03-12T11:35:01.033Z,99791
2023-03-12T11:36:10.537Z,99791
2023-03-12T11:37:00.613Z,99779
2023-03-12T11:38:00.617Z,99779
2023-03-12T11:39:05.589Z,99779
2023-03-12T11:40:01.628Z,99779
2023-03-12T11:41:00.603Z,99779
2023-03-12T11:42:00.674Z,99776
2023-03-12T11:43:10.525Z,99776
2023-03-12T11:44:10.553Z,99776
2023-03-12T11:45:01.620Z,99776
2023-03-12T11:46:03.933Z,99776
2023-03-12T11:47:10.635Z,99767
2023-03-12T11:48:08.157Z,99767
2023-03-12T11:49:10.551Z,99767
2023-03-12T11:50:01.641Z,99767
2023-03-12T11:51:00.607Z,99767
2023-03-12T11:52:01.634Z,99770
2023-03-12T11:53:08.180Z,99770
2023-03-12T11:54:00.607Z,99770
2023-03-12T11:55:00.641Z,99770
2023-03-12T11:56:06.745Z,99770
2023-03-12T11:57:05.203Z,99767
2023-03-12T11:58:00.608Z,99767
2023-03-12T11:59:07.281Z,99767
2023-03-12T12:00:00.620Z,99767
2023-03-12T12:01:07.958Z,99767
2023-03-12T12:02:00.686Z,99769
2023-03-12T12:03:10.484Z,99769
2023-03-12T12:04:10.541Z,99769
2023-03-12T12:05:03.924Z,99769
2023-03-12T12:06:05.978Z,99769
2023-03-12T12:07:10.537Z,99770
2023-03-12T12:08:03.924Z,99770
2023-03-12T12:09:05.897Z,99770
2023-03-12T12:10:08.096Z,99770
2023-03-12T12:11:10.538Z,99770
2023-03-12T12:12:10.537Z,99768
2023-03-12T12:13:03.965Z,99768
2023-03-12T12:14:01.619Z,99768
2023-03-12T12:15:08.076Z,99768
2023-03-12T12:16:01.666Z,99768
2023-03-12T12:17:10.532Z,99768
2023-03-12T12:18:10.536Z,99768
2023-03-12T12:19:10.530Z,99768
2023-03-12T12:20:03.962Z,99768
2023-03-12T12:21:10.546Z,99768
2023-03-12T12:22:03.943Z,99758
2023-03-12T12:23:10.582Z,99758
2023-03-12T12:24:01.633Z,99758
2023-03-12T12:25:10.584Z,99758
2023-03-12T12:26:01.623Z,99758
2023-03-12T12:27:10.550Z,99753
2023-03-12T12:28:09.853Z,99753
2023-03-12T12:29:01.624Z,99753
2023-03-12T12:30:03.899Z,99753
2023-03-12T12:31:07.102Z,99753
2023-03-12T12:32:01.607Z,99743
2023-03-12T12:33:08.157Z,99743
2023-03-12T12:34:08.051Z,99743
2023-03-12T12:35:08.294Z,99743
2023-03-12T12:36:01.560Z,99743
2023-03-12T12:37:10.548Z,99735
2023-03-12T12:38:06.680Z,99735
2023-03-12T12:39:05.273Z,99735
2023-03-12T12:40:10.565Z,99735
2023-03-12T12:41:10.535Z,99735
2023-03-12T12:42:04.255Z,99737
2023-03-12T12:43:08.180Z,99737
2023-03-12T12:44:04.241Z,99737
2023-03-12T12:45:03.093Z,99737
2023-03-12T12:46:10.559Z,99737
2023-03-12T12:47:03.041Z,99718
2023-03-12T12:48:07.381Z,99718
2023-03-12T12:49:00.622Z,99718
2023-03-12T12:50:02.197Z,99718
2023-03-12T12:51:02.146Z,99718
2023-03-12T12:52:02.456Z,99726
2023-03-12T12:53:04.899Z,99726